ADDS METAR Data INFO
IDs: Format: Raw Decoded Include TAF

Data at: 1041 UTC 16 Jul 2018

METAR for:KFPK (Charotte/Beach Fld, MI, US)
Text:KFPK 161035Z AUTO 00000KT 2 1/2SM BR OVC095 20/19 A2993 RMK AO2 T02000191
Temperature: 20.0°C ( 68°F)
Dewpoint: 19.1°C ( 66°F) [RH = 95%]
Pressure (altimeter):29.93 inches Hg (1013.6 mb)
Winds:calm
Visibility: 2.50 sm ( 4.02 km)
Ceiling:9500 feet AGL
Clouds: overcast cloud deck at 9500 feet AGL
Weather:BR (mist)
QC Flag:automated observation with no human augmentation

TAF for:KFPK (Charotte/Beach Fld, MI, US)
Text:No data found

METAR for:KLAN (Lansing/Capital City, MI, US)
Text:KLAN 160953Z 18003KT 10SM BKN090 22/21 A2993 RMK AO2 SLP129 T02170206
Temperature: 21.7°C ( 71°F)
Dewpoint: 20.6°C ( 69°F) [RH = 93%]
Pressure (altimeter):29.93 inches Hg (1013.6 mb) [Sea level pressure: 1012.9 mb]
Winds:from the S (180 degrees) at 3 MPH (3 knots; 1.5 m/s)
Visibility:10 or more sm (16+ km)
Ceiling:9000 feet AGL
Clouds: broken clouds at 9000 feet AGL

TAF for:KLAN (Lansing/Capital City, MI, US) issued at 0540 UTC 16 Jul 2018
Text:KLAN 160540Z 1606/1706 VRB04KT P6SM SCT100
Forecast period:0600 to 0900 UTC 16 July 2018
Forecast type:FROM: standard forecast or significant change
Winds:variable direction winds at 5 MPH (4 knots; 2.1 m/s)
Visibility:6 or more sm (10+ km)
Ceiling:at least 12,000 feet AGL
Clouds: scattered clouds at 10000 feet AGL
Text:FM160900 00000KT 5SM BR SCT035 BKN120
Forecast period:0900 to 1300 UTC 16 July 2018
Forecast type:FROM: standard forecast or significant change
Winds:calm
Visibility: 5 sm ( 8 km)
Ceiling:12000 feet AGL
Clouds: scattered clouds at 3500 feet AGL, broken clouds at 12000 feet AGL
Weather:BR (mist)
Text:FM161300 25006KT P6SM VCSH BKN035
Forecast period:1300 to 2000 UTC 16 July 2018
Forecast type:FROM: standard forecast or significant change
Winds:from the WSW (250 degrees) at 7 MPH (6 knots; 3.1 m/s)
Visibility:6 or more sm (10+ km)
Ceiling:3500 feet AGL
Clouds: broken clouds at 3500 feet AGL
Weather:VCSH (showers in vicinity)
Text:FM162000 29009KT P6SM VCTS BKN040CB
Forecast period:2000 UTC 16 July 2018 to 0000 UTC 17 July 2018
Forecast type:FROM: standard forecast or significant change
Winds:from the WNW (290 degrees) at 10 MPH (9 knots; 4.6 m/s)
Visibility:6 or more sm (10+ km)
Ceiling:4000 feet AGL
Clouds: broken clouds at 4000 feet AGL
Weather:VCTS (thunderstorm in vicinity)
Text:FM170000 30006KT P6SM BKN250
Forecast period:0000 to 0600 UTC 17 July 2018
Forecast type:FROM: standard forecast or significant change
Winds:from the WNW (300 degrees) at 7 MPH (6 knots; 3.1 m/s)
Visibility:6 or more sm (10+ km)
Ceiling:25000 feet AGL
Clouds: broken clouds at 25000 feet AGL